sensor_id;sensor_type;location;lat;lon;timestamp;P1;durP1;ratioP1;P2;durP2;ratioP2
29688;SDS011;16600;47.444;8.334;2022-09-01T00:01:16;24.20;;;15.10;;
29688;SDS011;16600;47.444;8.334;2022-09-01T00:03:47;18.85;;;15.05;;
29688;SDS011;16600;47.444;8.334;2022-09-01T00:06:14;16.33;;;14.70;;
29688;SDS011;16600;47.444;8.334;2022-09-01T00:08:40;19.10;;;15.38;;
29688;SDS011;16600;47.444;8.334;2022-09-01T00:11:06;20.02;;;14.82;;
29688;SDS011;16600;47.444;8.334;2022-09-01T00:13:32;22.35;;;14.88;;
29688;SDS011;16600;47.444;8.334;2022-09-01T00:18:24;14.95;;;13.43;;
29688;SDS011;16600;47.444;8.334;2022-09-01T00:20:50;20.42;;;14.20;;
29688;SDS011;16600;47.444;8.334;2022-09-01T00:23:24;16.83;;;15.10;;
29688;SDS011;16600;47.444;8.334;2022-09-01T00:25:50;23.83;;;14.43;;
29688;SDS011;16600;47.444;8.334;2022-09-01T00:28:16;19.88;;;14.90;;
29688;SDS011;16600;47.444;8.334;2022-09-01T00:30:45;21.02;;;17.23;;
29688;SDS011;16600;47.444;8.334;2022-09-01T00:33:12;24.15;;;16.85;;
29688;SDS011;16600;47.444;8.334;2022-09-01T00:35:38;15.00;;;13.40;;
29688;SDS011;16600;47.444;8.334;2022-09-01T00:38:04;15.80;;;12.80;;
29688;SDS011;16600;47.444;8.334;2022-09-01T00:40:33;18.02;;;12.95;;
29688;SDS011;16600;47.444;8.334;2022-09-01T00:43:16;17.58;;;13.05;;
29688;SDS011;16600;47.444;8.334;2022-09-01T00:45:46;22.35;;;13.90;;
29688;SDS011;16600;47.444;8.334;2022-09-01T00:48:16;16.40;;;13.30;;
29688;SDS011;16600;47.444;8.334;2022-09-01T00:50:45;14.18;;;12.50;;
29688;SDS011;16600;47.444;8.334;2022-09-01T00:53:11;19.45;;;14.90;;
29688;SDS011;16600;47.444;8.334;2022-09-01T00:55:38;15.20;;;11.80;;
29688;SDS011;16600;47.444;8.334;2022-09-01T00:58:05;18.48;;;11.90;;
29688;SDS011;16600;47.444;8.334;2022-09-01T01:00:33;14.65;;;9.15;;
29688;SDS011;16600;47.444;8.334;2022-09-01T01:03:12;12.43;;;10.77;;
29688;SDS011;16600;47.444;8.334;2022-09-01T01:05:39;12.07;;;10.65;;
29688;SDS011;16600;47.444;8.334;2022-09-01T01:08:10;12.35;;;10.90;;
29688;SDS011;16600;47.444;8.334;2022-09-01T01:10:38;14.43;;;11.48;;
29688;SDS011;16600;47.444;8.334;2022-09-01T01:13:08;12.95;;;10.38;;
29688;SDS011;16600;47.444;8.334;2022-09-01T01:15:38;20.50;;;10.32;;
29688;SDS011;16600;47.444;8.334;2022-09-01T01:18:09;9.25;;;8.32;;
29688;SDS011;16600;47.444;8.334;2022-09-01T01:23:21;12.85;;;10.57;;
29688;SDS011;16600;47.444;8.334;2022-09-01T01:25:56;9.32;;;7.75;;
29688;SDS011;16600;47.444;8.334;2022-09-01T01:28:24;16.75;;;11.50;;
29688;SDS011;16600;47.444;8.334;2022-09-01T01:30:53;11.85;;;9.77;;
29688;SDS011;16600;47.444;8.334;2022-09-01T01:33:19;19.20;;;13.25;;
29688;SDS011;16600;47.444;8.334;2022-09-01T01:35:47;18.13;;;10.63;;
29688;SDS011;16600;47.444;8.334;2022-09-01T01:38:14;19.05;;;11.65;;
29688;SDS011;16600;47.444;8.334;2022-09-01T01:40:41;15.15;;;11.55;;
29688;SDS011;16600;47.444;8.334;2022-09-01T01:45:32;11.38;;;9.60;;
29688;SDS011;16600;47.444;8.334;2022-09-01T01:47:58;16.30;;;11.25;;
29688;SDS011;16600;47.444;8.334;2022-09-01T01:50:31;12.63;;;10.32;;
29688;SDS011;16600;47.444;8.334;2022-09-01T01:53:00;15.95;;;11.30;;
29688;SDS011;16600;47.444;8.334;2022-09-01T01:55:27;13.93;;;11.40;;
29688;SDS011;16600;47.444;8.334;2022-09-01T01:57:57;13.20;;;11.63;;
29688;SDS011;16600;47.444;8.334;2022-09-01T02:00:25;17.45;;;13.52;;
29688;SDS011;16600;47.444;8.334;2022-09-01T02:02:52;15.55;;;13.90;;
29688;SDS011;16600;47.444;8.334;2022-09-01T02:05:19;15.65;;;13.02;;
29688;SDS011;16600;47.444;8.334;2022-09-01T02:07:47;17.13;;;12.68;;
29688;SDS011;16600;47.444;8.334;2022-09-01T02:10:12;19.33;;;14.02;;
29688;SDS011;16600;47.444;8.334;2022-09-01T02:12:44;21.85;;;14.82;;
29688;SDS011;16600;47.444;8.334;2022-09-01T02:15:11;12.88;;;10.73;;
29688;SDS011;16600;47.444;8.334;2022-09-01T02:17:48;23.90;;;14.38;;
29688;SDS011;16600;47.444;8.334;2022-09-01T02:22:40;14.85;;;13.45;;
29688;SDS011;16600;47.444;8.334;2022-09-01T02:25:08;17.48;;;12.52;;
29688;SDS011;16600;47.444;8.334;2022-09-01T02:27:34;19.65;;;13.30;;
29688;SDS011;16600;47.444;8.334;2022-09-01T02:30:03;16.25;;;13.43;;
29688;SDS011;16600;47.444;8.334;2022-09-01T02:32:31;19.80;;;14.98;;
29688;SDS011;16600;47.444;8.334;2022-09-01T02:37:31;19.60;;;17.38;;
29688;SDS011;16600;47.444;8.334;2022-09-01T02:39:57;23.85;;;16.75;;
29688;SDS011;16600;47.444;8.334;2022-09-01T02:44:55;25.63;;;19.73;;
29688;SDS011;16600;47.444;8.334;2022-09-01T02:47:22;28.88;;;17.70;;
29688;SDS011;16600;47.444;8.334;2022-09-01T02:49:51;23.10;;;19.73;;
29688;SDS011;16600;47.444;8.334;2022-09-01T02:52:17;29.48;;;21.20;;
29688;SDS011;16600;47.444;8.334;2022-09-01T02:54:45;27.75;;;17.33;;
29688;SDS011;16600;47.444;8.334;2022-09-01T02:57:13;18.80;;;14.60;;
29688;SDS011;16600;47.444;8.334;2022-09-01T03:04:32;28.05;;;18.02;;
29688;SDS011;16600;47.444;8.334;2022-09-01T03:07:05;27.75;;;22.17;;
29688;SDS011;16600;47.444;8.334;2022-09-01T03:09:31;33.95;;;20.77;;
29688;SDS011;16600;47.444;8.334;2022-09-01T03:12:01;23.30;;;17.77;;
29688;SDS011;16600;47.444;8.334;2022-09-01T03:14:30;22.75;;;18.00;;
29688;SDS011;16600;47.444;8.334;2022-09-01T03:16:56;17.77;;;15.65;;
29688;SDS011;16600;47.444;8.334;2022-09-01T03:19:24;22.45;;;13.93;;
29688;SDS011;16600;47.444;8.334;2022-09-01T03:21:51;20.77;;;16.35;;
29688;SDS011;16600;47.444;8.334;2022-09-01T03:24:22;24.35;;;16.77;;
29688;SDS011;16600;47.444;8.334;2022-09-01T03:26:50;20.55;;;16.77;;
29688;SDS011;16600;47.444;8.334;2022-09-01T03:29:17;22.60;;;17.33;;
29688;SDS011;16600;47.444;8.334;2022-09-01T03:31:43;26.00;;;17.48;;
29688;SDS011;16600;47.444;8.334;2022-09-01T03:36:39;22.95;;;17.65;;
29688;SDS011;16600;47.444;8.334;2022-09-01T03:39:16;19.83;;;17.83;;
29688;SDS011;16600;47.444;8.334;2022-09-01T03:41:42;23.52;;;17.83;;
29688;SDS011;16600;47.444;8.334;2022-09-01T03:44:09;22.13;;;17.83;;
29688;SDS011;16600;47.444;8.334;2022-09-01T03:46:37;20.48;;;17.70;;
29688;SDS011;16600;47.444;8.334;2022-09-01T03:49:04;21.38;;;17.88;;
29688;SDS011;16600;47.444;8.334;2022-09-01T03:51:37;22.05;;;18.63;;
29688;SDS011;16600;47.444;8.334;2022-09-01T03:54:05;20.05;;;17.95;;
29688;SDS011;16600;47.444;8.334;2022-09-01T03:58:58;15.45;;;10.77;;
29688;SDS011;16600;47.444;8.334;2022-09-01T04:03:03;13.47;;;10.27;;
29688;SDS011;16600;47.444;8.334;2022-09-01T04:05:29;25.23;;;18.27;;
29688;SDS011;16600;47.444;8.334;2022-09-01T04:07:57;19.83;;;17.58;;
29688;SDS011;16600;47.444;8.334;2022-09-01T04:10:23;21.55;;;19.15;;
29688;SDS011;16600;47.444;8.334;2022-09-01T04:15:14;19.75;;;17.55;;
29688;SDS011;16600;47.444;8.334;2022-09-01T04:17:45;20.63;;;15.98;;
29688;SDS011;16600;47.444;8.334;2022-09-01T04:20:37;21.50;;;19.00;;
29688;SDS011;16600;47.444;8.334;2022-09-01T04:25:56;21.63;;;19.52;;
29688;SDS011;16600;47.444;8.334;2022-09-01T04:28:23;22.75;;;19.50;;
29688;SDS011;16600;47.444;8.334;2022-09-01T04:30:56;22.60;;;18.77;;
29688;SDS011;16600;47.444;8.334;2022-09-01T04:33:26;22.75;;;19.17;;
29688;SDS011;16600;47.444;8.334;2022-09-01T04:36:03;27.58;;;19.13;;
29688;SDS011;16600;47.444;8.334;2022-09-01T04:38:29;21.67;;;19.50;;
29688;SDS011;16600;47.444;8.334;2022-09-01T04:40:55;18.60;;;15.77;;
29688;SDS011;16600;47.444;8.334;2022-09-01T04:43:24;19.58;;;16.52;;
29688;SDS011;16600;47.444;8.334;2022-09-01T04:45:50;9.85;;;8.68;;
29688;SDS011;16600;47.444;8.334;2022-09-01T04:48:18;20.42;;;16.02;;
29688;SDS011;16600;47.444;8.334;2022-09-01T04:50:46;30.00;;;17.75;;
29688;SDS011;16600;47.444;8.334;2022-09-01T04:53:18;18.90;;;16.85;;
29688;SDS011;16600;47.444;8.334;2022-09-01T04:55:47;25.65;;;19.05;;
29688;SDS011;16600;47.444;8.334;2022-09-01T05:00:41;21.60;;;18.42;;
29688;SDS011;16600;47.444;8.334;2022-09-01T05:03:09;24.60;;;21.98;;
29688;SDS011;16600;47.444;8.334;2022-09-01T05:05:50;20.08;;;17.83;;
29688;SDS011;16600;47.444;8.334;2022-09-01T05:08:19;16.90;;;13.20;;
29688;SDS011;16600;47.444;8.334;2022-09-01T05:10:49;21.63;;;19.40;;
29688;SDS011;16600;47.444;8.334;2022-09-01T05:13:42;23.52;;;19.60;;
29688;SDS011;16600;47.444;8.334;2022-09-01T05:16:09;23.45;;;20.92;;
29688;SDS011;16600;47.444;8.334;2022-09-01T05:18:42;25.08;;;21.10;;
29688;SDS011;16600;47.444;8.334;2022-09-01T05:21:12;18.02;;;16.13;;
29688;SDS011;16600;47.444;8.334;2022-09-01T05:23:41;21.13;;;18.02;;
29688;SDS011;16600;47.444;8.334;2022-09-01T05:26:14;23.40;;;20.15;;
29688;SDS011;16600;47.444;8.334;2022-09-01T05:28:43;24.88;;;20.65;;
29688;SDS011;16600;47.444;8.334;2022-09-01T05:31:09;20.70;;;18.65;;
29688;SDS011;16600;47.444;8.334;2022-09-01T05:33:36;21.65;;;19.33;;
29688;SDS011;16600;47.444;8.334;2022-09-01T05:36:06;26.90;;;21.73;;
29688;SDS011;16600;47.444;8.334;2022-09-01T05:38:33;23.38;;;20.08;;
29688;SDS011;16600;47.444;8.334;2022-09-01T05:41:00;27.77;;;20.35;;
29688;SDS011;16600;47.444;8.334;2022-09-01T05:43:28;24.25;;;21.55;;
29688;SDS011;16600;47.444;8.334;2022-09-01T05:45:57;19.73;;;17.67;;
29688;SDS011;16600;47.444;8.334;2022-09-01T05:48:24;22.80;;;19.63;;
29688;SDS011;16600;47.444;8.334;2022-09-01T05:53:16;25.00;;;20.83;;
29688;SDS011;16600;47.444;8.334;2022-09-01T05:55:43;22.83;;;20.35;;
29688;SDS011;16600;47.444;8.334;2022-09-01T05:58:11;30.73;;;21.13;;
29688;SDS011;16600;47.444;8.334;2022-09-01T06:00:39;24.67;;;20.70;;
29688;SDS011;16600;47.444;8.334;2022-09-01T06:03:05;21.27;;;18.98;;
29688;SDS011;16600;47.444;8.334;2022-09-01T06:05:36;23.75;;;19.42;;
29688;SDS011;16600;47.444;8.334;2022-09-01T06:08:06;21.95;;;19.63;;
29688;SDS011;16600;47.444;8.334;2022-09-01T06:10:35;23.70;;;20.42;;
29688;SDS011;16600;47.444;8.334;2022-09-01T06:13:10;19.93;;;17.87;;
29688;SDS011;16600;47.444;8.334;2022-09-01T06:15:40;25.40;;;21.60;;
29688;SDS011;16600;47.444;8.334;2022-09-01T06:20:37;21.50;;;17.73;;
29688;SDS011;16600;47.444;8.334;2022-09-01T06:23:04;20.77;;;17.42;;
29688;SDS011;16600;47.444;8.334;2022-09-01T06:27:56;17.67;;;15.77;;
29688;SDS011;16600;47.444;8.334;2022-09-01T06:33:03;18.70;;;16.75;;
29688;SDS011;16600;47.444;8.334;2022-09-01T06:35:35;17.02;;;15.15;;
29688;SDS011;16600;47.444;8.334;2022-09-01T06:38:05;19.27;;;15.48;;
29688;SDS011;16600;47.444;8.334;2022-09-01T06:40:43;16.67;;;14.85;;
29688;SDS011;16600;47.444;8.334;2022-09-01T06:43:11;19.15;;;13.35;;
29688;SDS011;16600;47.444;8.334;2022-09-01T06:45:45;13.82;;;11.38;;
29688;SDS011;16600;47.444;8.334;2022-09-01T06:50:49;17.88;;;13.82;;
29688;SDS011;16600;47.444;8.334;2022-09-01T06:53:19;15.43;;;13.82;;
29688;SDS011;16600;47.444;8.334;2022-09-01T06:55:48;15.48;;;13.88;;
29688;SDS011;16600;47.444;8.334;2022-09-01T06:58:14;17.50;;;13.98;;
29688;SDS011;16600;47.444;8.334;2022-09-01T07:00:45;15.35;;;13.75;;
29688;SDS011;16600;47.444;8.334;2022-09-01T07:03:15;23.83;;;13.45;;
29688;SDS011;16600;47.444;8.334;2022-09-01T07:06:06;16.38;;;12.73;;
29688;SDS011;16600;47.444;8.334;2022-09-01T07:08:50;18.23;;;13.60;;
29688;SDS011;16600;47.444;8.334;2022-09-01T07:11:31;14.85;;;13.35;;
29688;SDS011;16600;47.444;8.334;2022-09-01T07:14:02;15.40;;;13.70;;
29688;SDS011;16600;47.444;8.334;2022-09-01T07:16:30;14.18;;;12.35;;
29688;SDS011;16600;47.444;8.334;2022-09-01T07:18:59;13.32;;;12.05;;
29688;SDS011;16600;47.444;8.334;2022-09-01T07:21:27;11.90;;;10.00;;
29688;SDS011;16600;47.444;8.334;2022-09-01T07:23:53;14.23;;;12.02;;
29688;SDS011;16600;47.444;8.334;2022-09-01T07:28:45;14.75;;;12.00;;
29688;SDS011;16600;47.444;8.334;2022-09-01T07:31:16;12.27;;;11.07;;
29688;SDS011;16600;47.444;8.334;2022-09-01T07:33:46;19.35;;;11.68;;
29688;SDS011;16600;47.444;8.334;2022-09-01T07:36:20;12.73;;;11.35;;
29688;SDS011;16600;47.444;8.334;2022-09-01T07:38:47;15.68;;;11.95;;
29688;SDS011;16600;47.444;8.334;2022-09-01T07:41:22;11.63;;;10.43;;
29688;SDS011;16600;47.444;8.334;2022-09-01T07:44:07;13.43;;;10.77;;
29688;SDS011;16600;47.444;8.334;2022-09-01T07:46:52;14.82;;;10.20;;
29688;SDS011;16600;47.444;8.334;2022-09-01T07:49:18;13.50;;;10.32;;
29688;SDS011;16600;47.444;8.334;2022-09-01T07:51:45;13.68;;;12.05;;
29688;SDS011;16600;47.444;8.334;2022-09-01T07:54:19;11.68;;;10.45;;
29688;SDS011;16600;47.444;8.334;2022-09-01T07:56:48;12.50;;;11.20;;
29688;SDS011;16600;47.444;8.334;2022-09-01T07:59:15;13.23;;;10.60;;
29688;SDS011;16600;47.444;8.334;2022-09-01T08:01:53;11.48;;;10.27;;
29688;SDS011;16600;47.444;8.334;2022-09-01T08:04:19;11.45;;;9.10;;
29688;SDS011;16600;47.444;8.334;2022-09-01T08:06:47;13.57;;;10.85;;
29688;SDS011;16600;47.444;8.334;2022-09-01T08:09:13;11.57;;;10.38;;
29688;SDS011;16600;47.444;8.334;2022-09-01T08:14:04;13.70;;;10.02;;
29688;SDS011;16600;47.444;8.334;2022-09-01T08:16:31;17.30;;;9.45;;
29688;SDS011;16600;47.444;8.334;2022-09-01T08:18:58;11.02;;;9.05;;
29688;SDS011;16600;47.444;8.334;2022-09-01T08:21:39;12.15;;;7.97;;
29688;SDS011;16600;47.444;8.334;2022-09-01T08:24:19;10.80;;;8.63;;
29688;SDS011;16600;47.444;8.334;2022-09-01T08:26:46;10.82;;;8.93;;
29688;SDS011;16600;47.444;8.334;2022-09-01T08:29:12;8.70;;;7.80;;
29688;SDS011;16600;47.444;8.334;2022-09-01T08:31:40;15.75;;;9.75;;
29688;SDS011;16600;47.444;8.334;2022-09-01T08:34:06;9.45;;;8.32;;
29688;SDS011;16600;47.444;8.334;2022-09-01T08:36:33;11.25;;;8.90;;
29688;SDS011;16600;47.444;8.334;2022-09-01T08:38:59;9.93;;;8.52;;
29688;SDS011;16600;47.444;8.334;2022-09-01T08:44:12;8.82;;;7.75;;
29688;SDS011;16600;47.444;8.334;2022-09-01T08:46:40;8.73;;;7.75;;
29688;SDS011;16600;47.444;8.334;2022-09-01T08:49:08;12.02;;;7.55;;
29688;SDS011;16600;47.444;8.334;2022-09-01T08:51:57;7.57;;;6.88;;
29688;SDS011;16600;47.444;8.334;2022-09-01T08:56:51;32.55;;;7.95;;
29688;SDS011;16600;47.444;8.334;2022-09-01T08:59:27;9.27;;;8.20;;
29688;SDS011;16600;47.444;8.334;2022-09-01T09:07:30;9.63;;;7.30;;
29688;SDS011;16600;47.444;8.334;2022-09-01T09:10:11;7.57;;;6.75;;
29688;SDS011;16600;47.444;8.334;2022-09-01T09:17:53;6.00;;;5.28;;
29688;SDS011;16600;47.444;8.334;2022-09-01T09:20:24;5.95;;;5.32;;
29688;SDS011;16600;47.444;8.334;2022-09-01T09:22:50;6.45;;;5.80;;
29688;SDS011;16600;47.444;8.334;2022-09-01T09:25:16;9.65;;;5.57;;
29688;SDS011;16600;47.444;8.334;2022-09-01T09:27:43;7.93;;;5.35;;
29688;SDS011;16600;47.444;8.334;2022-09-01T09:30:13;8.65;;;5.70;;
29688;SDS011;16600;47.444;8.334;2022-09-01T09:32:44;5.82;;;5.10;;
29688;SDS011;16600;47.444;8.334;2022-09-01T09:37:42;7.22;;;5.90;;
29688;SDS011;16600;47.444;8.334;2022-09-01T09:42:37;7.70;;;6.57;;
29688;SDS011;16600;47.444;8.334;2022-09-01T09:45:21;6.18;;;5.57;;
29688;SDS011;16600;47.444;8.334;2022-09-01T09:47:47;4.70;;;4.30;;
29688;SDS011;16600;47.444;8.334;2022-09-01T09:52:50;5.63;;;5.00;;
29688;SDS011;16600;47.444;8.334;2022-09-01T09:55:25;7.68;;;4.85;;
29688;SDS011;16600;47.444;8.334;2022-09-01T09:57:58;4.68;;;4.25;;
29688;SDS011;16600;47.444;8.334;2022-09-01T10:03:06;7.07;;;4.65;;
29688;SDS011;16600;47.444;8.334;2022-09-01T10:08:56;4.45;;;4.05;;
29688;SDS011;16600;47.444;8.334;2022-09-01T10:10:58;4.60;;;4.20;;
29688;SDS011;16600;47.444;8.334;2022-09-01T10:13:25;4.00;;;3.63;;
29688;SDS011;16600;47.444;8.334;2022-09-01T10:15:57;7.00;;;3.78;;
29688;SDS011;16600;47.444;8.334;2022-09-01T10:18:26;6.05;;;4.60;;
29688;SDS011;16600;47.444;8.334;2022-09-01T10:20:59;7.35;;;4.72;;
29688;SDS011;16600;47.444;8.334;2022-09-01T10:23:25;8.52;;;4.22;;
29688;SDS011;16600;47.444;8.334;2022-09-01T10:25:54;4.80;;;4.40;;
29688;SDS011;16600;47.444;8.334;2022-09-01T10:28:26;4.45;;;4.05;;
29688;SDS011;16600;47.444;8.334;2022-09-01T10:30:56;7.20;;;3.90;;
29688;SDS011;16600;47.444;8.334;2022-09-01T10:33:26;4.20;;;3.90;;
29688;SDS011;16600;47.444;8.334;2022-09-01T10:36:00;4.78;;;4.15;;
29688;SDS011;16600;47.444;8.334;2022-09-01T10:38:38;5.43;;;4.40;;
29688;SDS011;16600;47.444;8.334;2022-09-01T10:41:34;4.35;;;3.97;;
29688;SDS011;16600;47.444;8.334;2022-09-01T10:44:06;4.90;;;4.50;;
29688;SDS011;16600;47.444;8.334;2022-09-01T10:52:01;5.78;;;3.80;;
29688;SDS011;16600;47.444;8.334;2022-09-01T10:59:53;4.25;;;3.85;;
29688;SDS011;16600;47.444;8.334;2022-09-01T11:02:22;4.13;;;3.50;;
29688;SDS011;16600;47.444;8.334;2022-09-01T11:15:05;4.22;;;3.83;;
29688;SDS011;16600;47.444;8.334;2022-09-01T11:25:45;3.78;;;3.47;;
29688;SDS011;16600;47.444;8.334;2022-09-01T11:36:01;5.18;;;4.03;;
29688;SDS011;16600;47.444;8.334;2022-09-01T11:38:27;3.95;;;3.10;;
29688;SDS011;16600;47.444;8.334;2022-09-01T11:40:55;3.55;;;3.25;;
29688;SDS011;16600;47.444;8.334;2022-09-01T11:43:21;3.47;;;3.17;;
29688;SDS011;16600;47.444;8.334;2022-09-01T11:48:34;3.30;;;3.00;;
29688;SDS011;16600;47.444;8.334;2022-09-01T11:51:03;4.32;;;3.70;;
29688;SDS011;16600;47.444;8.334;2022-09-01T11:53:29;3.63;;;3.28;;
29688;SDS011;16600;47.444;8.334;2022-09-01T11:55:56;3.50;;;3.20;;
29688;SDS011;16600;47.444;8.334;2022-09-01T11:58:35;4.80;;;3.33;;
29688;SDS011;16600;47.444;8.334;2022-09-01T12:03:48;7.13;;;3.75;;
29688;SDS011;16600;47.444;8.334;2022-09-01T12:06:25;3.08;;;2.78;;
29688;SDS011;16600;47.444;8.334;2022-09-01T12:08:58;3.13;;;2.65;;
29688;SDS011;16600;47.444;8.334;2022-09-01T12:11:28;2.65;;;2.45;;
29688;SDS011;16600;47.444;8.334;2022-09-01T12:13:59;2.97;;;2.63;;
29688;SDS011;16600;47.444;8.334;2022-09-01T12:16:25;3.25;;;2.60;;
29688;SDS011;16600;47.444;8.334;2022-09-01T12:18:56;2.95;;;2.00;;
29688;SDS011;16600;47.444;8.334;2022-09-01T12:21:27;2.60;;;2.40;;
29688;SDS011;16600;47.444;8.334;2022-09-01T12:23:53;3.45;;;2.40;;
29688;SDS011;16600;47.444;8.334;2022-09-01T12:26:26;2.50;;;2.30;;
29688;SDS011;16600;47.444;8.334;2022-09-01T12:28:52;2.83;;;2.50;;
29688;SDS011;16600;47.444;8.334;2022-09-01T12:31:22;4.28;;;2.28;;
29688;SDS011;16600;47.444;8.334;2022-09-01T12:33:48;4.47;;;2.83;;
29688;SDS011;16600;47.444;8.334;2022-09-01T12:38:46;3.15;;;2.42;;
29688;SDS011;16600;47.444;8.334;2022-09-01T12:44:25;3.45;;;2.95;;
29688;SDS011;16600;47.444;8.334;2022-09-01T12:46:43;3.35;;;3.05;;
29688;SDS011;16600;47.444;8.334;2022-09-01T12:49:19;2.88;;;2.60;;
29688;SDS011;16600;47.444;8.334;2022-09-01T12:51:46;3.05;;;2.83;;
29688;SDS011;16600;47.444;8.334;2022-09-01T12:54:12;2.63;;;2.40;;
29688;SDS011;16600;47.444;8.334;2022-09-01T12:56:38;4.72;;;2.80;;
29688;SDS011;16600;47.444;8.334;2022-09-01T13:01:37;4.47;;;2.38;;
29688;SDS011;16600;47.444;8.334;2022-09-01T13:04:25;4.05;;;2.47;;
29688;SDS011;16600;47.444;8.334;2022-09-01T13:06:52;3.47;;;2.75;;
29688;SDS011;16600;47.444;8.334;2022-09-01T13:09:18;2.45;;;2.28;;
29688;SDS011;16600;47.444;8.334;2022-09-01T13:11:46;3.35;;;2.42;;
29688;SDS011;16600;47.444;8.334;2022-09-01T13:14:13;2.30;;;2.17;;
29688;SDS011;16600;47.444;8.334;2022-09-01T13:16:39;1.98;;;1.88;;
29688;SDS011;16600;47.444;8.334;2022-09-01T13:19:04;2.63;;;2.42;;
29688;SDS011;16600;47.444;8.334;2022-09-01T13:21:31;2.75;;;2.42;;
29688;SDS011;16600;47.444;8.334;2022-09-01T13:23:58;3.72;;;1.98;;
29688;SDS011;16600;47.444;8.334;2022-09-01T13:26:29;4.75;;;2.60;;
29688;SDS011;16600;47.444;8.334;2022-09-01T13:28:55;2.85;;;2.38;;
29688;SDS011;16600;47.444;8.334;2022-09-01T13:31:21;2.28;;;2.08;;
29688;SDS011;16600;47.444;8.334;2022-09-01T13:33:47;2.20;;;2.03;;
29688;SDS011;16600;47.444;8.334;2022-09-01T13:36:13;2.53;;;2.22;;
29688;SDS011;16600;47.444;8.334;2022-09-01T13:38:39;2.60;;;2.40;;
29688;SDS011;16600;47.444;8.334;2022-09-01T13:41:05;2.38;;;2.22;;
29688;SDS011;16600;47.444;8.334;2022-09-01T13:43:30;2.35;;;2.15;;
29688;SDS011;16600;47.444;8.334;2022-09-01T13:45:56;2.65;;;2.08;;
29688;SDS011;16600;47.444;8.334;2022-09-01T13:48:22;5.78;;;2.60;;
29688;SDS011;16600;47.444;8.334;2022-09-01T13:50:48;2.53;;;2.33;;
29688;SDS011;16600;47.444;8.334;2022-09-01T13:53:14;8.00;;;2.30;;
29688;SDS011;16600;47.444;8.334;2022-09-01T13:55:40;5.15;;;2.25;;
29688;SDS011;16600;47.444;8.334;2022-09-01T13:58:06;7.28;;;2.45;;
29688;SDS011;16600;47.444;8.334;2022-09-01T14:00:33;2.50;;;1.75;;
29688;SDS011;16600;47.444;8.334;2022-09-01T14:03:00;2.63;;;2.42;;
29688;SDS011;16600;47.444;8.334;2022-09-01T14:05:28;3.05;;;2.50;;
29688;SDS011;16600;47.444;8.334;2022-09-01T14:07:54;3.65;;;2.78;;
29688;SDS011;16600;47.444;8.334;2022-09-01T14:10:21;4.38;;;2.50;;
29688;SDS011;16600;47.444;8.334;2022-09-01T14:12:46;2.50;;;2.30;;
29688;SDS011;16600;47.444;8.334;2022-09-01T14:15:13;3.53;;;2.58;;
29688;SDS011;16600;47.444;8.334;2022-09-01T14:17:39;2.60;;;2.40;;
29688;SDS011;16600;47.444;8.334;2022-09-01T14:20:06;2.78;;;2.50;;
29688;SDS011;16600;47.444;8.334;2022-09-01T14:22:33;3.00;;;2.80;;
29688;SDS011;16600;47.444;8.334;2022-09-01T14:24:59;2.50;;;2.20;;
29688;SDS011;16600;47.444;8.334;2022-09-01T14:27:24;2.33;;;2.10;;
29688;SDS011;16600;47.444;8.334;2022-09-01T14:29:50;4.60;;;3.15;;
29688;SDS011;16600;47.444;8.334;2022-09-01T14:32:17;3.33;;;2.22;;
29688;SDS011;16600;47.444;8.334;2022-09-01T14:34:44;2.30;;;2.13;;
29688;SDS011;16600;47.444;8.334;2022-09-01T14:37:12;2.58;;;2.33;;
29688;SDS011;16600;47.444;8.334;2022-09-01T14:39:42;2.50;;;2.30;;
29688;SDS011;16600;47.444;8.334;2022-09-01T14:42:07;2.47;;;2.28;;
29688;SDS011;16600;47.444;8.334;2022-09-01T14:44:37;2.22;;;2.13;;
29688;SDS011;16600;47.444;8.334;2022-09-01T14:47:23;2.80;;;2.60;;
29688;SDS011;16600;47.444;8.334;2022-09-01T14:49:50;3.33;;;3.03;;
29688;SDS011;16600;47.444;8.334;2022-09-01T14:52:17;3.88;;;2.88;;
29688;SDS011;16600;47.444;8.334;2022-09-01T14:54:43;3.15;;;2.85;;
29688;SDS011;16600;47.444;8.334;2022-09-01T14:57:09;3.03;;;2.72;;
29688;SDS011;16600;47.444;8.334;2022-09-01T14:59:35;5.32;;;2.42;;
29688;SDS011;16600;47.444;8.334;2022-09-01T15:02:01;2.63;;;2.42;;
29688;SDS011;16600;47.444;8.334;2022-09-01T15:04:27;14.48;;;2.42;;
29688;SDS011;16600;47.444;8.334;2022-09-01T15:06:53;7.47;;;2.97;;
29688;SDS011;16600;47.444;8.334;2022-09-01T15:09:18;3.50;;;2.75;;
29688;SDS011;16600;47.444;8.334;2022-09-01T15:11:50;2.33;;;2.13;;
29688;SDS011;16600;47.444;8.334;2022-09-01T15:14:18;5.25;;;2.80;;
29688;SDS011;16600;47.444;8.334;2022-09-01T15:16:44;9.68;;;2.60;;
29688;SDS011;16600;47.444;8.334;2022-09-01T15:19:12;3.85;;;2.67;;
29688;SDS011;16600;47.444;8.334;2022-09-01T15:21:38;8.13;;;2.30;;
29688;SDS011;16600;47.444;8.334;2022-09-01T15:24:04;2.95;;;2.00;;
29688;SDS011;16600;47.444;8.334;2022-09-01T15:26:31;6.65;;;2.40;;
29688;SDS011;16600;47.444;8.334;2022-09-01T15:29:02;2.38;;;2.17;;
29688;SDS011;16600;47.444;8.334;2022-09-01T15:31:44;2.38;;;2.17;;
29688;SDS011;16600;47.444;8.334;2022-09-01T15:34:13;3.88;;;2.25;;
29688;SDS011;16600;47.444;8.334;2022-09-01T15:36:41;3.55;;;2.30;;
29688;SDS011;16600;47.444;8.334;2022-09-01T15:39:09;2.85;;;2.10;;
29688;SDS011;16600;47.444;8.334;2022-09-01T15:41:37;4.38;;;2.53;;
29688;SDS011;16600;47.444;8.334;2022-09-01T15:44:04;2.58;;;2.15;;
29688;SDS011;16600;47.444;8.334;2022-09-01T15:46:31;4.35;;;2.60;;
29688;SDS011;16600;47.444;8.334;2022-09-01T15:49:01;2.40;;;2.25;;
29688;SDS011;16600;47.444;8.334;2022-09-01T15:51:35;2.42;;;2.22;;
29688;SDS011;16600;47.444;8.334;2022-09-01T15:54:04;2.50;;;2.30;;
29688;SDS011;16600;47.444;8.334;2022-09-01T15:56:33;3.08;;;2.60;;
29688;SDS011;16600;47.444;8.334;2022-09-01T15:58:59;4.47;;;2.35;;
29688;SDS011;16600;47.444;8.334;2022-09-01T16:03:03;2.10;;;1.95;;
29688;SDS011;16600;47.444;8.334;2022-09-01T16:05:29;2.35;;;2.15;;
29688;SDS011;16600;47.444;8.334;2022-09-01T16:07:55;5.82;;;2.30;;
29688;SDS011;16600;47.444;8.334;2022-09-01T16:10:21;2.50;;;2.30;;
29688;SDS011;16600;47.444;8.334;2022-09-01T16:12:47;2.85;;;2.65;;
29688;SDS011;16600;47.444;8.334;2022-09-01T16:15:16;3.00;;;2.45;;
29688;SDS011;16600;47.444;8.334;2022-09-01T16:20:33;3.58;;;3.22;;
29688;SDS011;16600;47.444;8.334;2022-09-01T16:23:11;4.18;;;2.45;;
29688;SDS011;16600;47.444;8.334;2022-09-01T16:25:37;5.25;;;2.47;;
29688;SDS011;16600;47.444;8.334;2022-09-01T16:28:05;4.22;;;2.65;;
29688;SDS011;16600;47.444;8.334;2022-09-01T16:30:37;8.20;;;2.97;;
29688;SDS011;16600;47.444;8.334;2022-09-01T16:33:04;3.00;;;2.72;;
29688;SDS011;16600;47.444;8.334;2022-09-01T16:41:16;13.48;;;4.70;;
29688;SDS011;16600;47.444;8.334;2022-09-01T16:47:00;4.57;;;2.47;;
29688;SDS011;16600;47.444;8.334;2022-09-01T16:51:47;4.93;;;2.58;;
29688;SDS011;16600;47.444;8.334;2022-09-01T16:57:18;2.70;;;2.38;;
29688;SDS011;16600;47.444;8.334;2022-09-01T16:59:53;2.88;;;2.58;;
29688;SDS011;16600;47.444;8.334;2022-09-01T17:05:02;2.35;;;2.15;;
29688;SDS011;16600;47.444;8.334;2022-09-01T17:10:04;2.63;;;2.42;;
29688;SDS011;16600;47.444;8.334;2022-09-01T17:12:48;3.28;;;2.58;;
29688;SDS011;16600;47.444;8.334;2022-09-01T17:15:30;4.85;;;2.78;;
29688;SDS011;16600;47.444;8.334;2022-09-01T17:20:29;2.55;;;2.35;;
29688;SDS011;16600;47.444;8.334;2022-09-01T17:22:57;3.03;;;2.50;;